<?xml version="1.0" encoding="UTF-8" standalone="no" ?><gpx xmlns="http://www.topografix.com/GPX/1/1" xmlns:gpxx="http://www.garmin.com/xmlschemas/GpxExtensions/v3" xmlns:gpxtpx="http://www.garmin.com/xmlschemas/TrackPointExtension/v1" creator="Foretrex 301" version="1.1" xmlns:xsi="http://www.w3.org/2001/XMLSchema-instance" xsi:schemaLocation="http://www.topografix.com/GPX/1/1 http://www.topografix.com/GPX/1/1/gpx.xsd http://www.garmin.com/xmlschemas/GpxExtensions/v3 http://www.garmin.com/xmlschemas/GpxExtensions/v3/GpxExtensionsv3.xsd"><metadata><link href="http://www.garmin.com"><text>Garmin International</text></link><time>2011-02-02T14:19:36Z</time></metadata><trk><name>ACTIVE LOG: 02 FEB 2011 09:59</name><trkseg><trkpt lat="51.915386" lon="-2.048835"><ele>73.20</ele><time>2011-02-02T09:59:59Z</time></trkpt><trkpt lat="51.915388" lon="-2.048839"><ele>73.20</ele><time>2011-02-02T10:00:19Z</time></trkpt><trkpt lat="51.915411" lon="-2.048917"><ele>72.24</ele><time>2011-02-02T10:00:26Z</time></trkpt><trkpt lat="51.915519" lon="-2.048986"><ele>72.72</ele><time>2011-02-02T10:00:40Z</time></trkpt><trkpt lat="51.915709" lon="-2.049030"><ele>74.64</ele><time>2011-02-02T10:00:55Z</time></trkpt><trkpt lat="51.915920" lon="-2.049038"><ele>74.64</ele><time>2011-02-02T10:01:15Z</time></trkpt><trkpt lat="51.916069" lon="-2.048954"><ele>76.56</ele><time>2011-02-02T10:01:30Z</time></trkpt><trkpt lat="51.916251" lon="-2.048911"><ele>78.48</ele><time>2011-02-02T10:01:48Z</time></trkpt><trkpt lat="51.916316" lon="-2.048886"><ele>79.93</ele><time>2011-02-02T10:01:55Z</time></trkpt><trkpt lat="51.916499" lon="-2.048893"><ele>77.04</ele><time>2011-02-02T10:02:13Z</time></trkpt><trkpt lat="51.916699" lon="-2.048842"><ele>76.56</ele><time>2011-02-02T10:02:31Z</time></trkpt><trkpt lat="51.916935" lon="-2.048765"><ele>75.60</ele><time>2011-02-02T10:02:51Z</time></trkpt><trkpt lat="51.917179" lon="-2.048670"><ele>77.04</ele><time>2011-02-02T10:03:13Z</time></trkpt><trkpt lat="51.917383" lon="-2.048595"><ele>77.04</ele><time>2011-02-02T10:03:31Z</time></trkpt><trkpt lat="51.917527" lon="-2.048557"><ele>77.52</ele><time>2011-02-02T10:03:45Z</time></trkpt><trkpt lat="51.917738" lon="-2.048512"><ele>78.00</ele><time>2011-02-02T10:04:04Z</time></trkpt><trkpt lat="51.917954" lon="-2.048498"><ele>78.48</ele><time>2011-02-02T10:04:24Z</time></trkpt><trkpt lat="51.918144" lon="-2.048496"><ele>78.00</ele><time>2011-02-02T10:04:41Z</time></trkpt><trkpt lat="51.918213" lon="-2.048488"><ele>78.00</ele><time>2011-02-02T10:04:47Z</time></trkpt><trkpt lat="51.918427" lon="-2.048486"><ele>78.97</ele><time>2011-02-02T10:05:05Z</time></trkpt><trkpt lat="51.918646" lon="-2.048432"><ele>78.97</ele><time>2011-02-02T10:05:23Z</time></trkpt><trkpt lat="51.918834" lon="-2.048405"><ele>81.85</ele><time>2011-02-02T10:05:40Z</time></trkpt><trkpt lat="51.918852" lon="-2.048420"><ele>81.37</ele><time>2011-02-02T10:05:42Z</time></trkpt><trkpt lat="51.918939" lon="-2.048734"><ele>81.85</ele><time>2011-02-02T10:06:02Z</time></trkpt><trkpt lat="51.918989" lon="-2.048880"><ele>83.29</ele><time>2011-02-02T10:06:22Z</time></trkpt><trkpt lat="51.919068" lon="-2.049235"><ele>83.29</ele><time>2011-02-02T10:06:41Z</time></trkpt><trkpt lat="51.919138" lon="-2.049665"><ele>82.81</ele><time>2011-02-02T10:07:03Z</time></trkpt><trkpt lat="51.919228" lon="-2.050101"><ele>80.41</ele><time>2011-02-02T10:07:25Z</time></trkpt><trkpt lat="51.919318" lon="-2.050471"><ele>77.52</ele><time>2011-02-02T10:07:44Z</time></trkpt><trkpt lat="51.919416" lon="-2.050600"><ele>78.00</ele><time>2011-02-02T10:07:59Z</time></trkpt><trkpt lat="51.919457" lon="-2.050680"><ele>78.00</ele><time>2011-02-02T10:08:08Z</time></trkpt><trkpt lat="51.919601" lon="-2.050992"><ele>78.00</ele><time>2011-02-02T10:08:29Z</time></trkpt><trkpt lat="51.919739" lon="-2.051181"><ele>78.00</ele><time>2011-02-02T10:08:47Z</time></trkpt><trkpt lat="51.919921" lon="-2.051138"><ele>78.97</ele><time>2011-02-02T10:09:03Z</time></trkpt><trkpt lat="51.920130" lon="-2.051059"><ele>78.97</ele><time>2011-02-02T10:09:21Z</time></trkpt><trkpt lat="51.920306" lon="-2.050965"><ele>78.97</ele><time>2011-02-02T10:09:40Z</time></trkpt><trkpt lat="51.920442" lon="-2.050916"><ele>78.00</ele><time>2011-02-02T10:09:54Z</time></trkpt><trkpt lat="51.920629" lon="-2.050853"><ele>77.04</ele><time>2011-02-02T10:10:12Z</time></trkpt><trkpt lat="51.920671" lon="-2.050834"><ele>77.52</ele><time>2011-02-02T10:10:16Z</time></trkpt><trkpt lat="51.920808" lon="-2.050825"><ele>78.48</ele><time>2011-02-02T10:10:29Z</time></trkpt><trkpt lat="51.920956" lon="-2.050850"><ele>77.52</ele><time>2011-02-02T10:10:46Z</time></trkpt><trkpt lat="51.920959" lon="-2.050854"><ele>77.04</ele><time>2011-02-02T10:10:47Z</time></trkpt><trkpt lat="51.920967" lon="-2.050857"><ele>77.04</ele><time>2011-02-02T10:10:49Z</time></trkpt><trkpt lat="51.921024" lon="-2.050791"><ele>77.04</ele><time>2011-02-02T10:11:02Z</time></trkpt><trkpt lat="51.921207" lon="-2.050669"><ele>75.12</ele><time>2011-02-02T10:11:20Z</time></trkpt><trkpt lat="51.921453" lon="-2.050628"><ele>75.12</ele><time>2011-02-02T10:11:42Z</time></trkpt><trkpt lat="51.921657" lon="-2.050630"><ele>74.64</ele><time>2011-02-02T10:12:02Z</time></trkpt><trkpt lat="51.921868" lon="-2.050710"><ele>74.16</ele><time>2011-02-02T10:12:23Z</time></trkpt><trkpt lat="51.922067" lon="-2.050831"><ele>72.72</ele><time>2011-02-02T10:12:43Z</time></trkpt><trkpt lat="51.922221" lon="-2.051056"><ele>72.24</ele><time>2011-02-02T10:13:02Z</time></trkpt><trkpt lat="51.922242" lon="-2.051104"><ele>71.76</ele><time>2011-02-02T10:13:05Z</time></trkpt><trkpt lat="51.922271" lon="-2.051177"><ele>71.27</ele><time>2011-02-02T10:13:10Z</time></trkpt><trkpt lat="51.922438" lon="-2.051450"><ele>69.83</ele><time>2011-02-02T10:13:31Z</time></trkpt><trkpt lat="51.922477" lon="-2.051512"><ele>69.83</ele><time>2011-02-02T10:13:36Z</time></trkpt><trkpt lat="51.922608" lon="-2.051737"><ele>69.35</ele><time>2011-02-02T10:13:54Z</time></trkpt><trkpt lat="51.922769" lon="-2.052048"><ele>67.43</ele><time>2011-02-02T10:14:18Z</time></trkpt><trkpt lat="51.922926" lon="-2.052226"><ele>66.47</ele><time>2011-02-02T10:14:37Z</time></trkpt><trkpt lat="51.923024" lon="-2.052377"><ele>66.47</ele><time>2011-02-02T10:14:54Z</time></trkpt><trkpt lat="51.923026" lon="-2.052382"><ele>66.47</ele><time>2011-02-02T10:14:55Z</time></trkpt><trkpt lat="51.923039" lon="-2.052391"><ele>65.03</ele><time>2011-02-02T10:15:10Z</time></trkpt><trkpt lat="51.923040" lon="-2.052395"><ele>64.55</ele><time>2011-02-02T10:15:15Z</time></trkpt><trkpt lat="51.923157" lon="-2.052655"><ele>65.51</ele><time>2011-02-02T10:15:33Z</time></trkpt><trkpt lat="51.923292" lon="-2.052908"><ele>65.03</ele><time>2011-02-02T10:15:52Z</time></trkpt><trkpt lat="51.923474" lon="-2.053134"><ele>65.03</ele><time>2011-02-02T10:16:13Z</time></trkpt><trkpt lat="51.923677" lon="-2.053378"><ele>64.07</ele><time>2011-02-02T10:16:36Z</time></trkpt><trkpt lat="51.923849" lon="-2.053564"><ele>63.58</ele><time>2011-02-02T10:16:54Z</time></trkpt><trkpt lat="51.924045" lon="-2.053770"><ele>63.58</ele><time>2011-02-02T10:17:15Z</time></trkpt><trkpt lat="51.924241" lon="-2.054026"><ele>62.62</ele><time>2011-02-02T10:17:39Z</time></trkpt><trkpt lat="51.924444" lon="-2.054277"><ele>62.14</ele><time>2011-02-02T10:18:01Z</time></trkpt><trkpt lat="51.924630" lon="-2.054522"><ele>63.10</ele><time>2011-02-02T10:18:24Z</time></trkpt><trkpt lat="51.924778" lon="-2.054652"><ele>63.10</ele><time>2011-02-02T10:18:42Z</time></trkpt><trkpt lat="51.924814" lon="-2.054690"><ele>63.10</ele><time>2011-02-02T10:18:55Z</time></trkpt><trkpt lat="51.924961" lon="-2.054917"><ele>64.07</ele><time>2011-02-02T10:19:14Z</time></trkpt><trkpt lat="51.925113" lon="-2.055170"><ele>64.07</ele><time>2011-02-02T10:19:35Z</time></trkpt><trkpt lat="51.925243" lon="-2.055425"><ele>65.03</ele><time>2011-02-02T10:19:54Z</time></trkpt><trkpt lat="51.925350" lon="-2.055613"><ele>65.51</ele><time>2011-02-02T10:20:08Z</time></trkpt><trkpt lat="51.925380" lon="-2.055673"><ele>65.51</ele><time>2011-02-02T10:20:14Z</time></trkpt><trkpt lat="51.925516" lon="-2.055787"><ele>65.99</ele><time>2011-02-02T10:20:31Z</time></trkpt><trkpt lat="51.925577" lon="-2.055820"><ele>66.47</ele><time>2011-02-02T10:20:38Z</time></trkpt><trkpt lat="51.925721" lon="-2.056048"><ele>66.47</ele><time>2011-02-02T10:21:00Z</time></trkpt><trkpt lat="51.925857" lon="-2.056280"><ele>66.47</ele><time>2011-02-02T10:21:19Z</time></trkpt><trkpt lat="51.926004" lon="-2.056541"><ele>66.47</ele><time>2011-02-02T10:21:40Z</time></trkpt><trkpt lat="51.926111" lon="-2.056805"><ele>66.47</ele><time>2011-02-02T10:21:59Z</time></trkpt><trkpt lat="51.926227" lon="-2.057159"><ele>65.03</ele><time>2011-02-02T10:22:22Z</time></trkpt><trkpt lat="51.926337" lon="-2.057469"><ele>65.03</ele><time>2011-02-02T10:22:42Z</time></trkpt><trkpt lat="51.926452" lon="-2.057736"><ele>64.55</ele><time>2011-02-02T10:23:01Z</time></trkpt><trkpt lat="51.926570" lon="-2.058022"><ele>64.07</ele><time>2011-02-02T10:23:22Z</time></trkpt><trkpt lat="51.926700" lon="-2.058285"><ele>63.10</ele><time>2011-02-02T10:23:42Z</time></trkpt><trkpt lat="51.926907" lon="-2.058508"><ele>62.14</ele><time>2011-02-02T10:24:04Z</time></trkpt><trkpt lat="51.927106" lon="-2.058673"><ele>61.18</ele><time>2011-02-02T10:24:24Z</time></trkpt><trkpt lat="51.927279" lon="-2.058826"><ele>59.26</ele><time>2011-02-02T10:24:43Z</time></trkpt><trkpt lat="51.927450" lon="-2.058966"><ele>57.82</ele><time>2011-02-02T10:25:01Z</time></trkpt><trkpt lat="51.927606" lon="-2.059068"><ele>56.86</ele><time>2011-02-02T10:25:19Z</time></trkpt><trkpt lat="51.927705" lon="-2.059135"><ele>55.89</ele><time>2011-02-02T10:25:35Z</time></trkpt><trkpt lat="51.927734" lon="-2.059154"><ele>55.41</ele><time>2011-02-02T10:25:43Z</time></trkpt><trkpt lat="51.927769" lon="-2.059167"><ele>54.93</ele><time>2011-02-02T10:25:47Z</time></trkpt><trkpt lat="51.927933" lon="-2.058996"><ele>54.45</ele><time>2011-02-02T10:26:05Z</time></trkpt><trkpt lat="51.928079" lon="-2.058811"><ele>55.89</ele><time>2011-02-02T10:26:23Z</time></trkpt><trkpt lat="51.928193" lon="-2.058638"><ele>58.30</ele><time>2011-02-02T10:26:40Z</time></trkpt><trkpt lat="51.928325" lon="-2.058468"><ele>59.74</ele><time>2011-02-02T10:26:58Z</time></trkpt><trkpt lat="51.928467" lon="-2.058258"><ele>61.66</ele><time>2011-02-02T10:27:17Z</time></trkpt><trkpt lat="51.928614" lon="-2.058045"><ele>63.10</ele><time>2011-02-02T10:27:36Z</time></trkpt><trkpt lat="51.928783" lon="-2.057809"><ele>63.10</ele><time>2011-02-02T10:27:57Z</time></trkpt><trkpt lat="51.928931" lon="-2.057598"><ele>62.62</ele><time>2011-02-02T10:28:15Z</time></trkpt><trkpt lat="51.929080" lon="-2.057399"><ele>63.58</ele><time>2011-02-02T10:28:33Z</time></trkpt><trkpt lat="51.929224" lon="-2.057179"><ele>64.55</ele><time>2011-02-02T10:28:52Z</time></trkpt><trkpt lat="51.929382" lon="-2.056921"><ele>66.47</ele><time>2011-02-02T10:29:13Z</time></trkpt><trkpt lat="51.929531" lon="-2.056689"><ele>66.95</ele><time>2011-02-02T10:29:33Z</time></trkpt><trkpt lat="51.929661" lon="-2.056486"><ele>67.43</ele><time>2011-02-02T10:29:51Z</time></trkpt><trkpt lat="51.929815" lon="-2.056245"><ele>66.95</ele><time>2011-02-02T10:30:12Z</time></trkpt><trkpt lat="51.929925" lon="-2.056064"><ele>65.99</ele><time>2011-02-02T10:30:29Z</time></trkpt><trkpt lat="51.930079" lon="-2.055856"><ele>67.91</ele><time>2011-02-02T10:30:47Z</time></trkpt><trkpt lat="51.930237" lon="-2.055628"><ele>69.35</ele><time>2011-02-02T10:31:07Z</time></trkpt><trkpt lat="51.930347" lon="-2.055410"><ele>69.35</ele><time>2011-02-02T10:31:23Z</time></trkpt><trkpt lat="51.930356" lon="-2.055055"><ele>70.31</ele><time>2011-02-02T10:31:44Z</time></trkpt><trkpt lat="51.930253" lon="-2.054769"><ele>70.31</ele><time>2011-02-02T10:32:04Z</time></trkpt><trkpt lat="51.930155" lon="-2.054536"><ele>69.83</ele><time>2011-02-02T10:32:22Z</time></trkpt><trkpt lat="51.930124" lon="-2.054425"><ele>69.35</ele><time>2011-02-02T10:32:35Z</time></trkpt><trkpt lat="51.930109" lon="-2.054358"><ele>69.35</ele><time>2011-02-02T10:32:50Z</time></trkpt><trkpt lat="51.930098" lon="-2.054343"><ele>69.35</ele><time>2011-02-02T10:33:15Z</time></trkpt><trkpt lat="51.930132" lon="-2.054278"><ele>69.35</ele><time>2011-02-02T10:33:31Z</time></trkpt><trkpt lat="51.930137" lon="-2.054270"><ele>69.83</ele><time>2011-02-02T10:33:48Z</time></trkpt><trkpt lat="51.930148" lon="-2.054265"><ele>69.35</ele><time>2011-02-02T10:33:59Z</time></trkpt><trkpt lat="51.930233" lon="-2.054250"><ele>68.87</ele><time>2011-02-02T10:34:11Z</time></trkpt><trkpt lat="51.930268" lon="-2.054235"><ele>68.87</ele><time>2011-02-02T10:34:19Z</time></trkpt><trkpt lat="51.930351" lon="-2.054509"><ele>68.87</ele><time>2011-02-02T10:34:38Z</time></trkpt><trkpt lat="51.930438" lon="-2.054818"><ele>68.39</ele><time>2011-02-02T10:34:58Z</time></trkpt><trkpt lat="51.930511" lon="-2.055101"><ele>69.35</ele><time>2011-02-02T10:35:17Z</time></trkpt><trkpt lat="51.930577" lon="-2.055361"><ele>70.31</ele><time>2011-02-02T10:35:34Z</time></trkpt><trkpt lat="51.930609" lon="-2.055415"><ele>70.79</ele><time>2011-02-02T10:35:52Z</time></trkpt><trkpt lat="51.930610" lon="-2.055417"><ele>70.79</ele><time>2011-02-02T10:35:59Z</time></trkpt><trkpt lat="51.930612" lon="-2.055442"><ele>70.79</ele><time>2011-02-02T10:36:02Z</time></trkpt><trkpt lat="51.930707" lon="-2.055676"><ele>69.35</ele><time>2011-02-02T10:36:20Z</time></trkpt><trkpt lat="51.930956" lon="-2.055721"><ele>68.39</ele><time>2011-02-02T10:36:42Z</time></trkpt><trkpt lat="51.931059" lon="-2.055710"><ele>69.83</ele><time>2011-02-02T10:36:55Z</time></trkpt><trkpt lat="51.931191" lon="-2.055710"><ele>71.76</ele><time>2011-02-02T10:37:09Z</time></trkpt><trkpt lat="51.931371" lon="-2.055700"><ele>70.31</ele><time>2011-02-02T10:37:25Z</time></trkpt><trkpt lat="51.931580" lon="-2.055742"><ele>70.79</ele><time>2011-02-02T10:37:43Z</time></trkpt><trkpt lat="51.931925" lon="-2.055714"><ele>69.83</ele><time>2011-02-02T10:38:11Z</time></trkpt><trkpt lat="51.932169" lon="-2.055692"><ele>68.39</ele><time>2011-02-02T10:38:31Z</time></trkpt><trkpt lat="51.932304" lon="-2.055702"><ele>68.39</ele><time>2011-02-02T10:38:43Z</time></trkpt><trkpt lat="51.932475" lon="-2.055745"><ele>66.95</ele><time>2011-02-02T10:38:59Z</time></trkpt><trkpt lat="51.932662" lon="-2.055739"><ele>65.03</ele><time>2011-02-02T10:39:16Z</time></trkpt><trkpt lat="51.932705" lon="-2.055758"><ele>65.03</ele><time>2011-02-02T10:39:27Z</time></trkpt><trkpt lat="51.932700" lon="-2.055737"><ele>66.47</ele><time>2011-02-02T10:39:59Z</time></trkpt><trkpt lat="51.932722" lon="-2.055788"><ele>65.51</ele><time>2011-02-02T10:40:12Z</time></trkpt><trkpt lat="51.932903" lon="-2.055807"><ele>63.10</ele><time>2011-02-02T10:40:28Z</time></trkpt><trkpt lat="51.933030" lon="-2.055822"><ele>64.55</ele><time>2011-02-02T10:40:40Z</time></trkpt><trkpt lat="51.933248" lon="-2.055826"><ele>64.55</ele><time>2011-02-02T10:41:00Z</time></trkpt><trkpt lat="51.933383" lon="-2.055780"><ele>65.03</ele><time>2011-02-02T10:41:16Z</time></trkpt><trkpt lat="51.933433" lon="-2.055674"><ele>64.55</ele><time>2011-02-02T10:41:25Z</time></trkpt><trkpt lat="51.933467" lon="-2.055503"><ele>65.51</ele><time>2011-02-02T10:41:39Z</time></trkpt><trkpt lat="51.933448" lon="-2.055500"><ele>65.03</ele><time>2011-02-02T10:41:56Z</time></trkpt><trkpt lat="51.933445" lon="-2.055505"><ele>65.99</ele><time>2011-02-02T10:42:53Z</time></trkpt><trkpt lat="51.933441" lon="-2.055509"><ele>64.55</ele><time>2011-02-02T10:43:15Z</time></trkpt><trkpt lat="51.933436" lon="-2.055497"><ele>64.55</ele><time>2011-02-02T10:43:44Z</time></trkpt><trkpt lat="51.933418" lon="-2.055364"><ele>64.07</ele><time>2011-02-02T10:43:57Z</time></trkpt><trkpt lat="51.933396" lon="-2.055228"><ele>64.07</ele><time>2011-02-02T10:44:10Z</time></trkpt><trkpt lat="51.933393" lon="-2.055216"><ele>64.55</ele><time>2011-02-02T10:44:11Z</time></trkpt><trkpt lat="51.933380" lon="-2.055024"><ele>64.55</ele><time>2011-02-02T10:44:25Z</time></trkpt><trkpt lat="51.933359" lon="-2.054858"><ele>64.07</ele><time>2011-02-02T10:44:39Z</time></trkpt><trkpt lat="51.933332" lon="-2.054641"><ele>65.51</ele><time>2011-02-02T10:44:54Z</time></trkpt><trkpt lat="51.933310" lon="-2.054447"><ele>64.55</ele><time>2011-02-02T10:45:08Z</time></trkpt><trkpt lat="51.933281" lon="-2.054258"><ele>64.55</ele><time>2011-02-02T10:45:22Z</time></trkpt><trkpt lat="51.933261" lon="-2.054122"><ele>66.95</ele><time>2011-02-02T10:45:37Z</time></trkpt><trkpt lat="51.933245" lon="-2.053988"><ele>66.47</ele><time>2011-02-02T10:45:50Z</time></trkpt><trkpt lat="51.933235" lon="-2.053879"><ele>67.91</ele><time>2011-02-02T10:46:00Z</time></trkpt><trkpt lat="51.933251" lon="-2.053614"><ele>67.91</ele><time>2011-02-02T10:46:17Z</time></trkpt><trkpt lat="51.933254" lon="-2.053556"><ele>67.43</ele><time>2011-02-02T10:46:21Z</time></trkpt><trkpt lat="51.933271" lon="-2.053436"><ele>66.95</ele><time>2011-02-02T10:46:30Z</time></trkpt><trkpt lat="51.933277" lon="-2.053303"><ele>65.03</ele><time>2011-02-02T10:46:48Z</time></trkpt><trkpt lat="51.933281" lon="-2.053237"><ele>65.03</ele><time>2011-02-02T10:47:43Z</time></trkpt><trkpt lat="51.933318" lon="-2.053161"><ele>65.03</ele><time>2011-02-02T10:47:50Z</time></trkpt><trkpt lat="51.933363" lon="-2.053123"><ele>65.03</ele><time>2011-02-02T10:47:57Z</time></trkpt><trkpt lat="51.933361" lon="-2.052974"><ele>66.47</ele><time>2011-02-02T10:48:10Z</time></trkpt><trkpt lat="51.933346" lon="-2.052860"><ele>68.87</ele><time>2011-02-02T10:48:29Z</time></trkpt><trkpt lat="51.933322" lon="-2.052821"><ele>68.87</ele><time>2011-02-02T10:48:55Z</time></trkpt><trkpt lat="51.933326" lon="-2.052785"><ele>68.39</ele><time>2011-02-02T10:49:00Z</time></trkpt><trkpt lat="51.933367" lon="-2.052651"><ele>68.39</ele><time>2011-02-02T10:49:07Z</time></trkpt><trkpt lat="51.933395" lon="-2.052557"><ele>66.95</ele><time>2011-02-02T10:49:13Z</time></trkpt><trkpt lat="51.933444" lon="-2.052332"><ele>68.39</ele><time>2011-02-02T10:49:28Z</time></trkpt><trkpt lat="51.933422" lon="-2.052275"><ele>68.39</ele><time>2011-02-02T10:49:33Z</time></trkpt><trkpt lat="51.933492" lon="-2.052183"><ele>67.43</ele><time>2011-02-02T10:49:48Z</time></trkpt><trkpt lat="51.933514" lon="-2.052049"><ele>68.87</ele><time>2011-02-02T10:50:00Z</time></trkpt><trkpt lat="51.933611" lon="-2.051895"><ele>70.31</ele><time>2011-02-02T10:50:17Z</time></trkpt><trkpt lat="51.933756" lon="-2.051655"><ele>69.83</ele><time>2011-02-02T10:50:37Z</time></trkpt><trkpt lat="51.933882" lon="-2.051387"><ele>70.79</ele><time>2011-02-02T10:50:56Z</time></trkpt><trkpt lat="51.933902" lon="-2.051352"><ele>70.79</ele><time>2011-02-02T10:50:59Z</time></trkpt><trkpt lat="51.934014" lon="-2.051144"><ele>70.79</ele><time>2011-02-02T10:51:16Z</time></trkpt><trkpt lat="51.934137" lon="-2.050893"><ele>70.79</ele><time>2011-02-02T10:51:35Z</time></trkpt><trkpt lat="51.934249" lon="-2.050672"><ele>71.76</ele><time>2011-02-02T10:51:53Z</time></trkpt><trkpt lat="51.934352" lon="-2.050484"><ele>71.27</ele><time>2011-02-02T10:52:09Z</time></trkpt><trkpt lat="51.934467" lon="-2.050295"><ele>70.31</ele><time>2011-02-02T10:52:26Z</time></trkpt><trkpt lat="51.934576" lon="-2.050091"><ele>70.79</ele><time>2011-02-02T10:52:44Z</time></trkpt><trkpt lat="51.934682" lon="-2.049879"><ele>72.24</ele><time>2011-02-02T10:53:02Z</time></trkpt><trkpt lat="51.934791" lon="-2.049691"><ele>72.72</ele><time>2011-02-02T10:53:18Z</time></trkpt><trkpt lat="51.934894" lon="-2.049500"><ele>71.76</ele><time>2011-02-02T10:53:34Z</time></trkpt><trkpt lat="51.934990" lon="-2.049309"><ele>71.76</ele><time>2011-02-02T10:53:50Z</time></trkpt><trkpt lat="51.934997" lon="-2.049300"><ele>71.76</ele><time>2011-02-02T10:53:51Z</time></trkpt><trkpt lat="51.935096" lon="-2.049144"><ele>72.24</ele><time>2011-02-02T10:54:08Z</time></trkpt><trkpt lat="51.935132" lon="-2.049146"><ele>70.79</ele><time>2011-02-02T10:54:22Z</time></trkpt><trkpt lat="51.935164" lon="-2.049119"><ele>70.31</ele><time>2011-02-02T10:54:34Z</time></trkpt><trkpt lat="51.935218" lon="-2.049120"><ele>71.27</ele><time>2011-02-02T10:54:45Z</time></trkpt><trkpt lat="51.935251" lon="-2.049139"><ele>72.72</ele><time>2011-02-02T10:54:49Z</time></trkpt><trkpt lat="51.935342" lon="-2.049066"><ele>73.68</ele><time>2011-02-02T10:55:04Z</time></trkpt><trkpt lat="51.935338" lon="-2.048961"><ele>67.43</ele><time>2011-02-02T10:55:20Z</time></trkpt><trkpt lat="51.935316" lon="-2.048958"><ele>69.83</ele><time>2011-02-02T10:56:24Z</time></trkpt><trkpt lat="51.935323" lon="-2.048995"><ele>68.87</ele><time>2011-02-02T10:56:49Z</time></trkpt><trkpt lat="51.935311" lon="-2.049033"><ele>70.31</ele><time>2011-02-02T10:59:13Z</time></trkpt><trkpt lat="51.935321" lon="-2.049061"><ele>72.72</ele><time>2011-02-02T11:00:22Z</time></trkpt><trkpt lat="51.935294" lon="-2.049020"><ele>72.72</ele><time>2011-02-02T11:05:37Z</time></trkpt><trkpt lat="51.935295" lon="-2.049014"><ele>72.72</ele><time>2011-02-02T11:06:15Z</time></trkpt><trkpt lat="51.935288" lon="-2.049042"><ele>72.24</ele><time>2011-02-02T11:07:17Z</time></trkpt><trkpt lat="51.935302" lon="-2.048995"><ele>70.31</ele><time>2011-02-02T11:07:31Z</time></trkpt><trkpt lat="51.935293" lon="-2.049012"><ele>70.79</ele><time>2011-02-02T11:08:04Z</time></trkpt><trkpt lat="51.935292" lon="-2.049038"><ele>69.35</ele><time>2011-02-02T11:08:39Z</time></trkpt><trkpt lat="51.935268" lon="-2.049071"><ele>70.79</ele><time>2011-02-02T11:08:59Z</time></trkpt><trkpt lat="51.935254" lon="-2.049097"><ele>70.31</ele><time>2011-02-02T11:09:11Z</time></trkpt><trkpt lat="51.935218" lon="-2.049070"><ele>71.27</ele><time>2011-02-02T11:09:30Z</time></trkpt><trkpt lat="51.935174" lon="-2.049017"><ele>71.76</ele><time>2011-02-02T11:09:53Z</time></trkpt><trkpt lat="51.935133" lon="-2.048974"><ele>73.20</ele><time>2011-02-02T11:10:03Z</time></trkpt><trkpt lat="51.935109" lon="-2.048906"><ele>74.16</ele><time>2011-02-02T11:10:14Z</time></trkpt><trkpt lat="51.935101" lon="-2.048811"><ele>73.68</ele><time>2011-02-02T11:10:26Z</time></trkpt><trkpt lat="51.935081" lon="-2.048561"><ele>74.16</ele><time>2011-02-02T11:10:43Z</time></trkpt><trkpt lat="51.935085" lon="-2.048334"><ele>76.56</ele><time>2011-02-02T11:10:59Z</time></trkpt><trkpt lat="51.935055" lon="-2.048123"><ele>75.12</ele><time>2011-02-02T11:11:13Z</time></trkpt><trkpt lat="51.934977" lon="-2.047902"><ele>74.64</ele><time>2011-02-02T11:11:27Z</time></trkpt><trkpt lat="51.934895" lon="-2.047667"><ele>75.12</ele><time>2011-02-02T11:11:43Z</time></trkpt><trkpt lat="51.934825" lon="-2.047422"><ele>74.64</ele><time>2011-02-02T11:11:59Z</time></trkpt><trkpt lat="51.934723" lon="-2.047184"><ele>75.12</ele><time>2011-02-02T11:12:16Z</time></trkpt><trkpt lat="51.934655" lon="-2.047029"><ele>75.12</ele><time>2011-02-02T11:12:29Z</time></trkpt><trkpt lat="51.934665" lon="-2.046985"><ele>74.16</ele><time>2011-02-02T11:12:55Z</time></trkpt><trkpt lat="51.934647" lon="-2.046994"><ele>74.16</ele><time>2011-02-02T11:13:34Z</time></trkpt><trkpt lat="51.934637" lon="-2.046992"><ele>74.16</ele><time>2011-02-02T11:14:09Z</time></trkpt><trkpt lat="51.934615" lon="-2.046948"><ele>74.16</ele><time>2011-02-02T11:14:24Z</time></trkpt><trkpt lat="51.934436" lon="-2.046783"><ele>76.08</ele><time>2011-02-02T11:14:41Z</time></trkpt><trkpt lat="51.934267" lon="-2.046642"><ele>77.52</ele><time>2011-02-02T11:14:58Z</time></trkpt><trkpt lat="51.934121" lon="-2.046456"><ele>78.00</ele><time>2011-02-02T11:15:16Z</time></trkpt><trkpt lat="51.933949" lon="-2.046312"><ele>79.45</ele><time>2011-02-02T11:15:34Z</time></trkpt><trkpt lat="51.933819" lon="-2.046192"><ele>78.00</ele><time>2011-02-02T11:15:49Z</time></trkpt><trkpt lat="51.933693" lon="-2.046110"><ele>79.45</ele><time>2011-02-02T11:16:04Z</time></trkpt><trkpt lat="51.933664" lon="-2.046097"><ele>79.45</ele><time>2011-02-02T11:16:07Z</time></trkpt><trkpt lat="51.933621" lon="-2.046072"><ele>79.93</ele><time>2011-02-02T11:16:12Z</time></trkpt><trkpt lat="51.933591" lon="-2.046069"><ele>79.45</ele><time>2011-02-02T11:16:15Z</time></trkpt><trkpt lat="51.933499" lon="-2.046026"><ele>79.93</ele><time>2011-02-02T11:16:25Z</time></trkpt><trkpt lat="51.933367" lon="-2.045924"><ele>80.41</ele><time>2011-02-02T11:16:40Z</time></trkpt><trkpt lat="51.933307" lon="-2.045890"><ele>80.41</ele><time>2011-02-02T11:16:46Z</time></trkpt><trkpt lat="51.933146" lon="-2.045738"><ele>79.45</ele><time>2011-02-02T11:17:03Z</time></trkpt><trkpt lat="51.932987" lon="-2.045587"><ele>79.93</ele><time>2011-02-02T11:17:21Z</time></trkpt><trkpt lat="51.932935" lon="-2.045493"><ele>79.93</ele><time>2011-02-02T11:17:33Z</time></trkpt><trkpt lat="51.932934" lon="-2.045464"><ele>80.89</ele><time>2011-02-02T11:17:55Z</time></trkpt><trkpt lat="51.932951" lon="-2.045484"><ele>82.81</ele><time>2011-02-02T11:18:31Z</time></trkpt><trkpt lat="51.932951" lon="-2.045484"><ele>82.81</ele><time>2011-02-02T11:18:35Z</time></trkpt><trkpt lat="51.932903" lon="-2.045431"><ele>81.85</ele><time>2011-02-02T11:18:41Z</time></trkpt><trkpt lat="51.932680" lon="-2.045353"><ele>81.85</ele><time>2011-02-02T11:19:00Z</time></trkpt><trkpt lat="51.932492" lon="-2.045353"><ele>81.37</ele><time>2011-02-02T11:19:18Z</time></trkpt><trkpt lat="51.932310" lon="-2.045367"><ele>81.37</ele><time>2011-02-02T11:19:36Z</time></trkpt><trkpt lat="51.932307" lon="-2.045357"><ele>81.85</ele><time>2011-02-02T11:19:39Z</time></trkpt><trkpt lat="51.932145" lon="-2.045379"><ele>82.33</ele><time>2011-02-02T11:19:56Z</time></trkpt><trkpt lat="51.931960" lon="-2.045405"><ele>84.25</ele><time>2011-02-02T11:20:15Z</time></trkpt><trkpt lat="51.931827" lon="-2.045420"><ele>85.21</ele><time>2011-02-02T11:20:29Z</time></trkpt><trkpt lat="51.931767" lon="-2.045451"><ele>85.21</ele><time>2011-02-02T11:20:37Z</time></trkpt><trkpt lat="51.931620" lon="-2.045421"><ele>86.66</ele><time>2011-02-02T11:20:53Z</time></trkpt><trkpt lat="51.931479" lon="-2.045402"><ele>88.58</ele><time>2011-02-02T11:21:09Z</time></trkpt><trkpt lat="51.931452" lon="-2.045400"><ele>88.58</ele><time>2011-02-02T11:21:12Z</time></trkpt><trkpt lat="51.931305" lon="-2.045338"><ele>89.54</ele><time>2011-02-02T11:21:29Z</time></trkpt><trkpt lat="51.931251" lon="-2.045352"><ele>90.02</ele><time>2011-02-02T11:21:37Z</time></trkpt><trkpt lat="51.931065" lon="-2.045386"><ele>89.54</ele><time>2011-02-02T11:21:55Z</time></trkpt><trkpt lat="51.930963" lon="-2.045421"><ele>91.94</ele><time>2011-02-02T11:22:11Z</time></trkpt><trkpt lat="51.930919" lon="-2.045452"><ele>90.98</ele><time>2011-02-02T11:22:26Z</time></trkpt><trkpt lat="51.930902" lon="-2.045464"><ele>90.02</ele><time>2011-02-02T11:22:36Z</time></trkpt><trkpt lat="51.930771" lon="-2.045536"><ele>89.06</ele><time>2011-02-02T11:22:53Z</time></trkpt><trkpt lat="51.930565" lon="-2.045590"><ele>89.54</ele><time>2011-02-02T11:23:12Z</time></trkpt><trkpt lat="51.930397" lon="-2.045600"><ele>88.58</ele><time>2011-02-02T11:23:29Z</time></trkpt><trkpt lat="51.930383" lon="-2.045590"><ele>89.54</ele><time>2011-02-02T11:23:50Z</time></trkpt><trkpt lat="51.930331" lon="-2.045560"><ele>88.10</ele><time>2011-02-02T11:24:04Z</time></trkpt><trkpt lat="51.930254" lon="-2.045527"><ele>85.69</ele><time>2011-02-02T11:24:12Z</time></trkpt><trkpt lat="51.930118" lon="-2.045501"><ele>84.25</ele><time>2011-02-02T11:24:26Z</time></trkpt><trkpt lat="51.930107" lon="-2.045468"><ele>83.29</ele><time>2011-02-02T11:24:42Z</time></trkpt><trkpt lat="51.929934" lon="-2.045458"><ele>87.14</ele><time>2011-02-02T11:25:03Z</time></trkpt><trkpt lat="51.929923" lon="-2.045452"><ele>87.14</ele><time>2011-02-02T11:25:04Z</time></trkpt><trkpt lat="51.929972" lon="-2.045104"><ele>90.98</ele><time>2011-02-02T11:25:22Z</time></trkpt><trkpt lat="51.929970" lon="-2.044724"><ele>94.35</ele><time>2011-02-02T11:25:40Z</time></trkpt><trkpt lat="51.929969" lon="-2.044705"><ele>94.35</ele><time>2011-02-02T11:25:41Z</time></trkpt><trkpt lat="51.929857" lon="-2.044543"><ele>93.39</ele><time>2011-02-02T11:25:56Z</time></trkpt><trkpt lat="51.929737" lon="-2.044346"><ele>93.39</ele><time>2011-02-02T11:26:12Z</time></trkpt><trkpt lat="51.929653" lon="-2.044175"><ele>94.35</ele><time>2011-02-02T11:26:27Z</time></trkpt><trkpt lat="51.929602" lon="-2.044085"><ele>94.83</ele><time>2011-02-02T11:26:40Z</time></trkpt><trkpt lat="51.929541" lon="-2.043872"><ele>95.79</ele><time>2011-02-02T11:26:56Z</time></trkpt><trkpt lat="51.929479" lon="-2.043658"><ele>96.75</ele><time>2011-02-02T11:27:11Z</time></trkpt><trkpt lat="51.929409" lon="-2.043410"><ele>97.23</ele><time>2011-02-02T11:27:28Z</time></trkpt><trkpt lat="51.929351" lon="-2.043123"><ele>99.15</ele><time>2011-02-02T11:27:47Z</time></trkpt><trkpt lat="51.929393" lon="-2.042914"><ele>100.11</ele><time>2011-02-02T11:28:03Z</time></trkpt><trkpt lat="51.929429" lon="-2.042774"><ele>100.60</ele><time>2011-02-02T11:28:13Z</time></trkpt><trkpt lat="51.929433" lon="-2.042505"><ele>102.04</ele><time>2011-02-02T11:28:30Z</time></trkpt><trkpt lat="51.929370" lon="-2.042254"><ele>101.56</ele><time>2011-02-02T11:28:47Z</time></trkpt><trkpt lat="51.929320" lon="-2.042090"><ele>100.60</ele><time>2011-02-02T11:28:58Z</time></trkpt><trkpt lat="51.929283" lon="-2.041880"><ele>101.56</ele><time>2011-02-02T11:29:12Z</time></trkpt><trkpt lat="51.929292" lon="-2.041613"><ele>102.52</ele><time>2011-02-02T11:29:29Z</time></trkpt><trkpt lat="51.929256" lon="-2.041483"><ele>102.04</ele><time>2011-02-02T11:29:41Z</time></trkpt><trkpt lat="51.929120" lon="-2.041544"><ele>97.71</ele><time>2011-02-02T11:29:56Z</time></trkpt><trkpt lat="51.929022" lon="-2.041622"><ele>96.75</ele><time>2011-02-02T11:30:06Z</time></trkpt><trkpt lat="51.928858" lon="-2.041745"><ele>94.35</ele><time>2011-02-02T11:30:23Z</time></trkpt><trkpt lat="51.928661" lon="-2.041878"><ele>90.98</ele><time>2011-02-02T11:30:42Z</time></trkpt><trkpt lat="51.928507" lon="-2.042012"><ele>90.02</ele><time>2011-02-02T11:30:58Z</time></trkpt><trkpt lat="51.928459" lon="-2.042072"><ele>88.58</ele><time>2011-02-02T11:31:04Z</time></trkpt><trkpt lat="51.928350" lon="-2.042242"><ele>84.73</ele><time>2011-02-02T11:31:20Z</time></trkpt><trkpt lat="51.928270" lon="-2.042411"><ele>81.37</ele><time>2011-02-02T11:31:33Z</time></trkpt><trkpt lat="51.928258" lon="-2.042439"><ele>80.89</ele><time>2011-02-02T11:31:35Z</time></trkpt><trkpt lat="51.928189" lon="-2.042566"><ele>81.37</ele><time>2011-02-02T11:31:47Z</time></trkpt><trkpt lat="51.928104" lon="-2.042822"><ele>80.89</ele><time>2011-02-02T11:32:04Z</time></trkpt><trkpt lat="51.928079" lon="-2.042906"><ele>80.41</ele><time>2011-02-02T11:32:09Z</time></trkpt><trkpt lat="51.927989" lon="-2.042929"><ele>80.89</ele><time>2011-02-02T11:32:24Z</time></trkpt><trkpt lat="51.927990" lon="-2.042927"><ele>80.89</ele><time>2011-02-02T11:32:26Z</time></trkpt><trkpt lat="51.927889" lon="-2.042808"><ele>83.77</ele><time>2011-02-02T11:32:40Z</time></trkpt><trkpt lat="51.927790" lon="-2.042786"><ele>85.69</ele><time>2011-02-02T11:32:53Z</time></trkpt><trkpt lat="51.927718" lon="-2.042772"><ele>85.69</ele><time>2011-02-02T11:33:18Z</time></trkpt><trkpt lat="51.927534" lon="-2.042812"><ele>87.14</ele><time>2011-02-02T11:33:36Z</time></trkpt><trkpt lat="51.927388" lon="-2.042867"><ele>87.14</ele><time>2011-02-02T11:33:52Z</time></trkpt><trkpt lat="51.927336" lon="-2.042918"><ele>86.66</ele><time>2011-02-02T11:34:02Z</time></trkpt><trkpt lat="51.927217" lon="-2.043085"><ele>84.73</ele><time>2011-02-02T11:34:18Z</time></trkpt><trkpt lat="51.927101" lon="-2.043251"><ele>85.21</ele><time>2011-02-02T11:34:36Z</time></trkpt><trkpt lat="51.926984" lon="-2.043328"><ele>85.21</ele><time>2011-02-02T11:34:50Z</time></trkpt><trkpt lat="51.926858" lon="-2.043396"><ele>85.69</ele><time>2011-02-02T11:35:05Z</time></trkpt><trkpt lat="51.926728" lon="-2.043426"><ele>86.18</ele><time>2011-02-02T11:35:20Z</time></trkpt><trkpt lat="51.926641" lon="-2.043383"><ele>87.14</ele><time>2011-02-02T11:35:34Z</time></trkpt><trkpt lat="51.926623" lon="-2.043372"><ele>87.62</ele><time>2011-02-02T11:35:40Z</time></trkpt><trkpt lat="51.926544" lon="-2.043314"><ele>87.14</ele><time>2011-02-02T11:35:53Z</time></trkpt><trkpt lat="51.926518" lon="-2.043287"><ele>87.14</ele><time>2011-02-02T11:35:57Z</time></trkpt><trkpt lat="51.926435" lon="-2.043254"><ele>88.10</ele><time>2011-02-02T11:36:12Z</time></trkpt><trkpt lat="51.926296" lon="-2.043198"><ele>86.66</ele><time>2011-02-02T11:36:26Z</time></trkpt><trkpt lat="51.926199" lon="-2.043170"><ele>87.14</ele><time>2011-02-02T11:36:39Z</time></trkpt><trkpt lat="51.926087" lon="-2.043135"><ele>88.10</ele><time>2011-02-02T11:36:52Z</time></trkpt><trkpt lat="51.925958" lon="-2.043108"><ele>87.62</ele><time>2011-02-02T11:37:07Z</time></trkpt><trkpt lat="51.925820" lon="-2.043059"><ele>86.18</ele><time>2011-02-02T11:37:24Z</time></trkpt><trkpt lat="51.925673" lon="-2.043017"><ele>84.73</ele><time>2011-02-02T11:37:44Z</time></trkpt><trkpt lat="51.925515" lon="-2.043001"><ele>81.85</ele><time>2011-02-02T11:38:02Z</time></trkpt><trkpt lat="51.925379" lon="-2.042937"><ele>82.81</ele><time>2011-02-02T11:38:17Z</time></trkpt><trkpt lat="51.925258" lon="-2.042898"><ele>83.77</ele><time>2011-02-02T11:38:32Z</time></trkpt><trkpt lat="51.925135" lon="-2.042859"><ele>84.25</ele><time>2011-02-02T11:38:47Z</time></trkpt><trkpt lat="51.925023" lon="-2.042846"><ele>83.77</ele><time>2011-02-02T11:39:01Z</time></trkpt><trkpt lat="51.924940" lon="-2.042791"><ele>83.29</ele><time>2011-02-02T11:39:14Z</time></trkpt><trkpt lat="51.924931" lon="-2.042789"><ele>83.29</ele><time>2011-02-02T11:39:15Z</time></trkpt><trkpt lat="51.924859" lon="-2.042764"><ele>82.81</ele><time>2011-02-02T11:39:23Z</time></trkpt><trkpt lat="51.924698" lon="-2.042719"><ele>83.29</ele><time>2011-02-02T11:39:40Z</time></trkpt><trkpt lat="51.924575" lon="-2.042732"><ele>83.29</ele><time>2011-02-02T11:39:53Z</time></trkpt><trkpt lat="51.924389" lon="-2.042726"><ele>82.81</ele><time>2011-02-02T11:40:11Z</time></trkpt><trkpt lat="51.924228" lon="-2.042735"><ele>81.85</ele><time>2011-02-02T11:40:27Z</time></trkpt><trkpt lat="51.924055" lon="-2.042745"><ele>80.41</ele><time>2011-02-02T11:40:44Z</time></trkpt><trkpt lat="51.923904" lon="-2.042771"><ele>79.45</ele><time>2011-02-02T11:41:00Z</time></trkpt><trkpt lat="51.923766" lon="-2.042799"><ele>78.97</ele><time>2011-02-02T11:41:15Z</time></trkpt><trkpt lat="51.923602" lon="-2.042849"><ele>78.48</ele><time>2011-02-02T11:41:32Z</time></trkpt><trkpt lat="51.923447" lon="-2.042882"><ele>78.48</ele><time>2011-02-02T11:41:48Z</time></trkpt><trkpt lat="51.923298" lon="-2.042934"><ele>78.00</ele><time>2011-02-02T11:42:04Z</time></trkpt><trkpt lat="51.923162" lon="-2.042970"><ele>77.52</ele><time>2011-02-02T11:42:18Z</time></trkpt><trkpt lat="51.923026" lon="-2.043010"><ele>76.56</ele><time>2011-02-02T11:42:33Z</time></trkpt><trkpt lat="51.922876" lon="-2.043012"><ele>75.60</ele><time>2011-02-02T11:42:49Z</time></trkpt><trkpt lat="51.922735" lon="-2.043004"><ele>74.64</ele><time>2011-02-02T11:43:05Z</time></trkpt><trkpt lat="51.922664" lon="-2.043031"><ele>72.72</ele><time>2011-02-02T11:43:21Z</time></trkpt><trkpt lat="51.922607" lon="-2.043018"><ele>72.24</ele><time>2011-02-02T11:43:34Z</time></trkpt><trkpt lat="51.922531" lon="-2.043028"><ele>72.72</ele><time>2011-02-02T11:43:49Z</time></trkpt><trkpt lat="51.922462" lon="-2.043031"><ele>75.60</ele><time>2011-02-02T11:44:01Z</time></trkpt><trkpt lat="51.922309" lon="-2.043048"><ele>78.00</ele><time>2011-02-02T11:44:18Z</time></trkpt><trkpt lat="51.922168" lon="-2.043083"><ele>78.00</ele><time>2011-02-02T11:44:33Z</time></trkpt><trkpt lat="51.922030" lon="-2.043120"><ele>78.48</ele><time>2011-02-02T11:44:48Z</time></trkpt><trkpt lat="51.921878" lon="-2.043166"><ele>77.52</ele><time>2011-02-02T11:45:05Z</time></trkpt><trkpt lat="51.921719" lon="-2.043204"><ele>77.52</ele><time>2011-02-02T11:45:23Z</time></trkpt><trkpt lat="51.921669" lon="-2.043219"><ele>76.08</ele><time>2011-02-02T11:45:37Z</time></trkpt><trkpt lat="51.921629" lon="-2.043216"><ele>75.60</ele><time>2011-02-02T11:45:51Z</time></trkpt><trkpt lat="51.921501" lon="-2.043259"><ele>76.56</ele><time>2011-02-02T11:46:05Z</time></trkpt><trkpt lat="51.921345" lon="-2.043318"><ele>77.04</ele><time>2011-02-02T11:46:21Z</time></trkpt><trkpt lat="51.921180" lon="-2.043372"><ele>77.52</ele><time>2011-02-02T11:46:38Z</time></trkpt><trkpt lat="51.921027" lon="-2.043426"><ele>77.52</ele><time>2011-02-02T11:46:54Z</time></trkpt><trkpt lat="51.920904" lon="-2.043472"><ele>76.56</ele><time>2011-02-02T11:47:09Z</time></trkpt><trkpt lat="51.920824" lon="-2.043536"><ele>77.52</ele><time>2011-02-02T11:47:21Z</time></trkpt><trkpt lat="51.920767" lon="-2.043488"><ele>78.00</ele><time>2011-02-02T11:47:32Z</time></trkpt><trkpt lat="51.920725" lon="-2.043485"><ele>79.93</ele><time>2011-02-02T11:47:52Z</time></trkpt><trkpt lat="51.920681" lon="-2.043472"><ele>80.41</ele><time>2011-02-02T11:48:10Z</time></trkpt><trkpt lat="51.920569" lon="-2.043456"><ele>81.37</ele><time>2011-02-02T11:48:21Z</time></trkpt><trkpt lat="51.920434" lon="-2.043519"><ele>79.93</ele><time>2011-02-02T11:48:36Z</time></trkpt><trkpt lat="51.920305" lon="-2.043608"><ele>78.00</ele><time>2011-02-02T11:48:51Z</time></trkpt><trkpt lat="51.920154" lon="-2.043707"><ele>77.52</ele><time>2011-02-02T11:49:08Z</time></trkpt><trkpt lat="51.920013" lon="-2.043792"><ele>77.04</ele><time>2011-02-02T11:49:24Z</time></trkpt><trkpt lat="51.919859" lon="-2.043886"><ele>76.56</ele><time>2011-02-02T11:49:40Z</time></trkpt><trkpt lat="51.919770" lon="-2.043942"><ele>75.60</ele><time>2011-02-02T11:49:49Z</time></trkpt><trkpt lat="51.919600" lon="-2.044046"><ele>77.04</ele><time>2011-02-02T11:50:06Z</time></trkpt><trkpt lat="51.919443" lon="-2.044138"><ele>77.04</ele><time>2011-02-02T11:50:23Z</time></trkpt><trkpt lat="51.919279" lon="-2.044230"><ele>77.04</ele><time>2011-02-02T11:50:41Z</time></trkpt><trkpt lat="51.919117" lon="-2.044335"><ele>77.04</ele><time>2011-02-02T11:50:57Z</time></trkpt><trkpt lat="51.918975" lon="-2.044405"><ele>77.04</ele><time>2011-02-02T11:51:13Z</time></trkpt><trkpt lat="51.918887" lon="-2.044455"><ele>77.04</ele><time>2011-02-02T11:51:26Z</time></trkpt><trkpt lat="51.918859" lon="-2.044502"><ele>76.56</ele><time>2011-02-02T11:51:41Z</time></trkpt><trkpt lat="51.918788" lon="-2.044536"><ele>76.08</ele><time>2011-02-02T11:51:53Z</time></trkpt><trkpt lat="51.918613" lon="-2.044531"><ele>78.00</ele><time>2011-02-02T11:52:10Z</time></trkpt><trkpt lat="51.918472" lon="-2.044583"><ele>77.04</ele><time>2011-02-02T11:52:25Z</time></trkpt><trkpt lat="51.918346" lon="-2.044617"><ele>75.12</ele><time>2011-02-02T11:52:39Z</time></trkpt><trkpt lat="51.918213" lon="-2.044651"><ele>72.24</ele><time>2011-02-02T11:52:55Z</time></trkpt><trkpt lat="51.918166" lon="-2.044656"><ele>76.08</ele><time>2011-02-02T11:53:09Z</time></trkpt><trkpt lat="51.918020" lon="-2.044747"><ele>76.08</ele><time>2011-02-02T11:53:24Z</time></trkpt><trkpt lat="51.917917" lon="-2.044842"><ele>73.68</ele><time>2011-02-02T11:53:37Z</time></trkpt><trkpt lat="51.917888" lon="-2.044871"><ele>72.72</ele><time>2011-02-02T11:53:41Z</time></trkpt><trkpt lat="51.917794" lon="-2.044911"><ele>72.24</ele><time>2011-02-02T11:53:51Z</time></trkpt><trkpt lat="51.917691" lon="-2.044948"><ele>71.76</ele><time>2011-02-02T11:54:07Z</time></trkpt><trkpt lat="51.917607" lon="-2.045059"><ele>70.79</ele><time>2011-02-02T11:54:30Z</time></trkpt><trkpt lat="51.917571" lon="-2.045077"><ele>73.20</ele><time>2011-02-02T11:54:36Z</time></trkpt><trkpt lat="51.917400" lon="-2.045065"><ele>77.52</ele><time>2011-02-02T11:54:50Z</time></trkpt><trkpt lat="51.917225" lon="-2.045076"><ele>78.00</ele><time>2011-02-02T11:55:07Z</time></trkpt><trkpt lat="51.917044" lon="-2.045079"><ele>78.00</ele><time>2011-02-02T11:55:24Z</time></trkpt><trkpt lat="51.916879" lon="-2.045106"><ele>77.52</ele><time>2011-02-02T11:55:40Z</time></trkpt><trkpt lat="51.916692" lon="-2.045105"><ele>76.56</ele><time>2011-02-02T11:55:58Z</time></trkpt><trkpt lat="51.916514" lon="-2.045121"><ele>76.56</ele><time>2011-02-02T11:56:16Z</time></trkpt><trkpt lat="51.916378" lon="-2.045127"><ele>76.08</ele><time>2011-02-02T11:56:29Z</time></trkpt><trkpt lat="51.916350" lon="-2.045133"><ele>75.12</ele><time>2011-02-02T11:56:32Z</time></trkpt><trkpt lat="51.916299" lon="-2.045136"><ele>75.12</ele><time>2011-02-02T11:56:38Z</time></trkpt><trkpt lat="51.916270" lon="-2.045129"><ele>75.12</ele><time>2011-02-02T11:56:42Z</time></trkpt><trkpt lat="51.916210" lon="-2.045129"><ele>75.12</ele><time>2011-02-02T11:56:49Z</time></trkpt><trkpt lat="51.916068" lon="-2.045109"><ele>74.16</ele><time>2011-02-02T11:57:06Z</time></trkpt><trkpt lat="51.916025" lon="-2.045126"><ele>73.68</ele><time>2011-02-02T11:57:20Z</time></trkpt><trkpt lat="51.915952" lon="-2.045142"><ele>74.64</ele><time>2011-02-02T11:57:37Z</time></trkpt><trkpt lat="51.915766" lon="-2.045174"><ele>74.64</ele><time>2011-02-02T11:57:56Z</time></trkpt><trkpt lat="51.915681" lon="-2.045197"><ele>74.64</ele><time>2011-02-02T11:58:06Z</time></trkpt><trkpt lat="51.915616" lon="-2.045168"><ele>74.64</ele><time>2011-02-02T11:58:18Z</time></trkpt><trkpt lat="51.915553" lon="-2.045225"><ele>74.64</ele><time>2011-02-02T11:58:28Z</time></trkpt><trkpt lat="51.915438" lon="-2.045267"><ele>75.60</ele><time>2011-02-02T11:58:44Z</time></trkpt><trkpt lat="51.915234" lon="-2.045313"><ele>75.60</ele><time>2011-02-02T11:59:02Z</time></trkpt><trkpt lat="51.915060" lon="-2.045356"><ele>74.64</ele><time>2011-02-02T11:59:18Z</time></trkpt><trkpt lat="51.914937" lon="-2.045362"><ele>76.08</ele><time>2011-02-02T11:59:33Z</time></trkpt><trkpt lat="51.914910" lon="-2.045390"><ele>77.52</ele><time>2011-02-02T11:59:48Z</time></trkpt><trkpt lat="51.914901" lon="-2.045410"><ele>78.00</ele><time>2011-02-02T11:59:51Z</time></trkpt><trkpt lat="51.914890" lon="-2.045484"><ele>78.48</ele><time>2011-02-02T11:59:56Z</time></trkpt><trkpt lat="51.915011" lon="-2.045686"><ele>77.04</ele><time>2011-02-02T12:00:12Z</time></trkpt><trkpt lat="51.915045" lon="-2.045731"><ele>76.08</ele><time>2011-02-02T12:00:18Z</time></trkpt><trkpt lat="51.915077" lon="-2.045781"><ele>76.08</ele><time>2011-02-02T12:00:23Z</time></trkpt><trkpt lat="51.915098" lon="-2.045863"><ele>76.08</ele><time>2011-02-02T12:00:29Z</time></trkpt><trkpt lat="51.915136" lon="-2.045922"><ele>75.60</ele><time>2011-02-02T12:00:34Z</time></trkpt><trkpt lat="51.915171" lon="-2.046143"><ele>77.04</ele><time>2011-02-02T12:00:49Z</time></trkpt><trkpt lat="51.915236" lon="-2.046388"><ele>77.52</ele><time>2011-02-02T12:01:07Z</time></trkpt><trkpt lat="51.915256" lon="-2.046462"><ele>79.45</ele><time>2011-02-02T12:01:21Z</time></trkpt><trkpt lat="51.915308" lon="-2.046604"><ele>76.56</ele><time>2011-02-02T12:01:35Z</time></trkpt><trkpt lat="51.915408" lon="-2.046590"><ele>74.64</ele><time>2011-02-02T12:01:49Z</time></trkpt><trkpt lat="51.915521" lon="-2.046841"><ele>75.12</ele><time>2011-02-02T12:02:07Z</time></trkpt><trkpt lat="51.915618" lon="-2.046972"><ele>78.00</ele><time>2011-02-02T12:02:20Z</time></trkpt><trkpt lat="51.915691" lon="-2.047184"><ele>78.00</ele><time>2011-02-02T12:02:35Z</time></trkpt><trkpt lat="51.915762" lon="-2.047545"><ele>77.52</ele><time>2011-02-02T12:02:58Z</time></trkpt><trkpt lat="51.915785" lon="-2.047692"><ele>77.52</ele><time>2011-02-02T12:03:07Z</time></trkpt><trkpt lat="51.915853" lon="-2.047857"><ele>79.45</ele><time>2011-02-02T12:03:18Z</time></trkpt><trkpt lat="51.915940" lon="-2.047906"><ele>77.04</ele><time>2011-02-02T12:03:25Z</time></trkpt><trkpt lat="51.915939" lon="-2.047973"><ele>76.56</ele><time>2011-02-02T12:03:29Z</time></trkpt><trkpt lat="51.915912" lon="-2.048089"><ele>76.08</ele><time>2011-02-02T12:03:35Z</time></trkpt><trkpt lat="51.915909" lon="-2.048203"><ele>74.64</ele><time>2011-02-02T12:03:42Z</time></trkpt><trkpt lat="51.915900" lon="-2.048286"><ele>74.64</ele><time>2011-02-02T12:03:47Z</time></trkpt><trkpt lat="51.915901" lon="-2.048433"><ele>74.16</ele><time>2011-02-02T12:03:55Z</time></trkpt><trkpt lat="51.915930" lon="-2.048511"><ele>73.68</ele><time>2011-02-02T12:04:00Z</time></trkpt><trkpt lat="51.915946" lon="-2.048554"><ele>73.20</ele><time>2011-02-02T12:04:03Z</time></trkpt><trkpt lat="51.915948" lon="-2.048604"><ele>72.72</ele><time>2011-02-02T12:04:06Z</time></trkpt><trkpt lat="51.915961" lon="-2.048875"><ele>70.31</ele><time>2011-02-02T12:04:25Z</time></trkpt><trkpt lat="51.915766" lon="-2.048912"><ele>71.76</ele><time>2011-02-02T12:04:40Z</time></trkpt><trkpt lat="51.915661" lon="-2.048907"><ele>68.39</ele><time>2011-02-02T12:04:50Z</time></trkpt><trkpt lat="51.915519" lon="-2.048878"><ele>67.43</ele><time>2011-02-02T12:05:06Z</time></trkpt><trkpt lat="51.915368" lon="-2.048886"><ele>67.43</ele><time>2011-02-02T12:05:25Z</time></trkpt><trkpt lat="51.915371" lon="-2.048891"><ele>67.91</ele><time>2011-02-02T12:05:31Z</time></trkpt></trkseg></trk></gpx>